sensor_id;sensor_type;location;lat;lon;timestamp;temperature;humidity
75648;DHT22;66269;51.466;7.260;2023-03-12T00:00:00;22.50;34.30
75648;DHT22;66269;51.466;7.260;2023-03-12T00:02:25;22.40;34.00
75648;DHT22;66269;51.466;7.260;2023-03-12T00:04:51;22.40;34.30
75648;DHT22;66269;51.466;7.260;2023-03-12T00:07:16;22.40;34.20
75648;DHT22;66269;51.466;7.260;2023-03-12T00:09:42;22.40;34.20
75648;DHT22;66269;51.466;7.260;2023-03-12T00:12:08;22.50;34.10
75648;DHT22;66269;51.466;7.260;2023-03-12T00:14:33;22.40;34.50
75648;DHT22;66269;51.466;7.260;2023-03-12T00:16:59;22.30;34.00
75648;DHT22;66269;51.466;7.260;2023-03-12T00:19:24;22.40;34.40
75648;DHT22;66269;51.466;7.260;2023-03-12T00:21:50;22.40;34.30
75648;DHT22;66269;51.466;7.260;2023-03-12T00:24:16;22.40;34.20
75648;DHT22;66269;51.466;7.260;2023-03-12T00:26:42;22.50;34.20
75648;DHT22;66269;51.466;7.260;2023-03-12T00:29:08;22.40;34.20
75648;DHT22;66269;51.466;7.260;2023-03-12T00:31:33;22.40;34.40
75648;DHT22;66269;51.466;7.260;2023-03-12T00:34:01;22.40;34.50
75648;DHT22;66269;51.466;7.260;2023-03-12T00:36:29;22.40;34.30
75648;DHT22;66269;51.466;7.260;2023-03-12T00:38:57;22.40;34.20
75648;DHT22;66269;51.466;7.260;2023-03-12T00:41:23;22.40;34.40
75648;DHT22;66269;51.466;7.260;2023-03-12T00:43:50;22.40;34.30
75648;DHT22;66269;51.466;7.260;2023-03-12T00:46:16;22.50;34.20
75648;DHT22;66269;51.466;7.260;2023-03-12T00:48:41;22.30;34.10
75648;DHT22;66269;51.466;7.260;2023-03-12T00:51:07;22.40;34.10
75648;DHT22;66269;51.466;7.260;2023-03-12T00:53:34;22.30;34.00
75648;DHT22;66269;51.466;7.260;2023-03-12T00:56:00;22.40;34.20
75648;DHT22;66269;51.466;7.260;2023-03-12T00:58:26;22.40;34.60
75648;DHT22;66269;51.466;7.260;2023-03-12T01:00:51;22.40;34.00
75648;DHT22;66269;51.466;7.260;2023-03-12T01:03:17;22.40;34.30
75648;DHT22;66269;51.466;7.260;2023-03-12T01:05:42;22.40;34.10
75648;DHT22;66269;51.466;7.260;2023-03-12T01:08:09;22.40;34.20
75648;DHT22;66269;51.466;7.260;2023-03-12T01:10:36;22.40;34.10
75648;DHT22;66269;51.466;7.260;2023-03-12T01:13:02;22.40;34.30
75648;DHT22;66269;51.466;7.260;2023-03-12T01:15:28;22.40;34.20
75648;DHT22;66269;51.466;7.260;2023-03-12T01:17:54;22.30;34.30
75648;DHT22;66269;51.466;7.260;2023-03-12T01:20:19;22.40;34.30
75648;DHT22;66269;51.466;7.260;2023-03-12T01:22:47;22.40;34.20
75648;DHT22;66269;51.466;7.260;2023-03-12T01:25:13;22.40;34.20
75648;DHT22;66269;51.466;7.260;2023-03-12T01:27:39;22.40;34.10
75648;DHT22;66269;51.466;7.260;2023-03-12T01:30:05;22.40;34.30
75648;DHT22;66269;51.466;7.260;2023-03-12T01:32:31;22.40;34.40
75648;DHT22;66269;51.466;7.260;2023-03-12T01:34:57;22.30;34.30
75648;DHT22;66269;51.466;7.260;2023-03-12T01:37:23;22.40;34.30
75648;DHT22;66269;51.466;7.260;2023-03-12T01:39:49;22.40;34.20
75648;DHT22;66269;51.466;7.260;2023-03-12T01:42:14;22.40;34.20
75648;DHT22;66269;51.466;7.260;2023-03-12T01:44:58;22.40;34.50
75648;DHT22;66269;51.466;7.260;2023-03-12T01:47:24;22.40;34.10
75648;DHT22;66269;51.466;7.260;2023-03-12T01:49:51;22.40;34.30
75648;DHT22;66269;51.466;7.260;2023-03-12T01:52:28;22.30;34.20
75648;DHT22;66269;51.466;7.260;2023-03-12T01:55:05;22.40;34.30
75648;DHT22;66269;51.466;7.260;2023-03-12T01:57:41;22.30;34.10
75648;DHT22;66269;51.466;7.260;2023-03-12T02:00:15;22.40;34.30
75648;DHT22;66269;51.466;7.260;2023-03-12T02:02:43;22.30;34.40
75648;DHT22;66269;51.466;7.260;2023-03-12T02:07:42;22.30;34.30
75648;DHT22;66269;51.466;7.260;2023-03-12T02:10:08;22.30;34.30
75648;DHT22;66269;51.466;7.260;2023-03-12T02:12:33;22.40;34.10
75648;DHT22;66269;51.466;7.260;2023-03-12T02:14:59;22.30;34.20
75648;DHT22;66269;51.466;7.260;2023-03-12T02:17:25;22.30;34.10
75648;DHT22;66269;51.466;7.260;2023-03-12T02:20:17;22.40;34.10
75648;DHT22;66269;51.466;7.260;2023-03-12T02:23:00;22.30;34.40
75648;DHT22;66269;51.466;7.260;2023-03-12T02:25:30;22.40;34.30
75648;DHT22;66269;51.466;7.260;2023-03-12T02:28:01;22.30;34.00
75648;DHT22;66269;51.466;7.260;2023-03-12T02:30:29;22.30;34.50
75648;DHT22;66269;51.466;7.260;2023-03-12T02:32:58;22.30;34.50
75648;DHT22;66269;51.466;7.260;2023-03-12T02:35:24;22.40;34.40
75648;DHT22;66269;51.466;7.260;2023-03-12T02:37:51;22.30;34.30
75648;DHT22;66269;51.466;7.260;2023-03-12T02:40:28;22.30;34.10
75648;DHT22;66269;51.466;7.260;2023-03-12T02:42:56;22.40;34.30
75648;DHT22;66269;51.466;7.260;2023-03-12T02:45:23;22.30;34.30
75648;DHT22;66269;51.466;7.260;2023-03-12T02:47:50;22.30;34.10
75648;DHT22;66269;51.466;7.260;2023-03-12T02:50:16;22.40;34.10
75648;DHT22;66269;51.466;7.260;2023-03-12T02:52:41;22.30;34.30
75648;DHT22;66269;51.466;7.260;2023-03-12T02:55:07;22.30;34.50
75648;DHT22;66269;51.466;7.260;2023-03-12T02:57:33;22.30;34.20
75648;DHT22;66269;51.466;7.260;2023-03-12T03:00:04;22.30;34.20
75648;DHT22;66269;51.466;7.260;2023-03-12T03:02:31;22.30;34.30
75648;DHT22;66269;51.466;7.260;2023-03-12T03:04:56;22.30;34.30
75648;DHT22;66269;51.466;7.260;2023-03-12T03:07:22;22.30;34.20
75648;DHT22;66269;51.466;7.260;2023-03-12T03:09:47;22.20;34.30
75648;DHT22;66269;51.466;7.260;2023-03-12T03:12:13;22.30;34.20
75648;DHT22;66269;51.466;7.260;2023-03-12T03:14:38;22.30;34.30
75648;DHT22;66269;51.466;7.260;2023-03-12T03:17:04;22.30;34.40
75648;DHT22;66269;51.466;7.260;2023-03-12T03:19:30;22.30;34.20
75648;DHT22;66269;51.466;7.260;2023-03-12T03:21:55;22.30;34.30
75648;DHT22;66269;51.466;7.260;2023-03-12T03:24:21;22.30;34.30
75648;DHT22;66269;51.466;7.260;2023-03-12T03:26:46;22.20;34.20
75648;DHT22;66269;51.466;7.260;2023-03-12T03:29:12;22.30;34.50
75648;DHT22;66269;51.466;7.260;2023-03-12T03:31:38;22.20;34.10
75648;DHT22;66269;51.466;7.260;2023-03-12T03:34:04;22.20;34.10
75648;DHT22;66269;51.466;7.260;2023-03-12T03:36:29;22.30;34.20
75648;DHT22;66269;51.466;7.260;2023-03-12T03:38:55;22.20;34.10
75648;DHT22;66269;51.466;7.260;2023-03-12T03:41:20;22.20;34.10
75648;DHT22;66269;51.466;7.260;2023-03-12T03:43:47;22.20;34.30
75648;DHT22;66269;51.466;7.260;2023-03-12T03:46:13;22.20;34.40
75648;DHT22;66269;51.466;7.260;2023-03-12T03:48:40;22.30;34.10
75648;DHT22;66269;51.466;7.260;2023-03-12T03:51:07;22.20;34.10
75648;DHT22;66269;51.466;7.260;2023-03-12T03:53:34;22.30;34.10
75648;DHT22;66269;51.466;7.260;2023-03-12T03:56:08;22.30;34.20
75648;DHT22;66269;51.466;7.260;2023-03-12T03:58:33;22.30;34.20
75648;DHT22;66269;51.466;7.260;2023-03-12T04:00:59;22.30;34.00
75648;DHT22;66269;51.466;7.260;2023-03-12T04:03:25;22.30;34.40
75648;DHT22;66269;51.466;7.260;2023-03-12T04:05:55;22.30;34.30
75648;DHT22;66269;51.466;7.260;2023-03-12T04:08:21;22.30;34.10
75648;DHT22;66269;51.466;7.260;2023-03-12T04:10:47;22.30;34.10
75648;DHT22;66269;51.466;7.260;2023-03-12T04:13:12;22.30;34.10
75648;DHT22;66269;51.466;7.260;2023-03-12T04:15:39;22.20;34.20
75648;DHT22;66269;51.466;7.260;2023-03-12T04:18:09;22.20;34.20
75648;DHT22;66269;51.466;7.260;2023-03-12T04:20:35;22.20;34.20
75648;DHT22;66269;51.466;7.260;2023-03-12T04:23:00;22.20;34.20
75648;DHT22;66269;51.466;7.260;2023-03-12T04:25:26;22.20;34.30
75648;DHT22;66269;51.466;7.260;2023-03-12T04:27:51;22.30;34.10
75648;DHT22;66269;51.466;7.260;2023-03-12T04:30:17;22.20;34.10
75648;DHT22;66269;51.466;7.260;2023-03-12T04:32:43;22.20;34.20
75648;DHT22;66269;51.466;7.260;2023-03-12T04:35:08;22.20;34.40
75648;DHT22;66269;51.466;7.260;2023-03-12T04:37:33;22.20;34.10
75648;DHT22;66269;51.466;7.260;2023-03-12T04:40:00;22.20;34.00
75648;DHT22;66269;51.466;7.260;2023-03-12T04:42:27;22.30;34.30
75648;DHT22;66269;51.466;7.260;2023-03-12T04:44:52;22.20;34.20
75648;DHT22;66269;51.466;7.260;2023-03-12T04:47:18;22.20;34.20
75648;DHT22;66269;51.466;7.260;2023-03-12T04:49:43;22.20;34.20
75648;DHT22;66269;51.466;7.260;2023-03-12T04:52:09;22.20;33.90
75648;DHT22;66269;51.466;7.260;2023-03-12T04:54:35;22.20;34.00
75648;DHT22;66269;51.466;7.260;2023-03-12T04:57:01;22.20;34.10
75648;DHT22;66269;51.466;7.260;2023-03-12T04:59:27;22.20;34.00
75648;DHT22;66269;51.466;7.260;2023-03-12T05:01:52;22.20;34.10
75648;DHT22;66269;51.466;7.260;2023-03-12T05:04:18;22.20;34.20
75648;DHT22;66269;51.466;7.260;2023-03-12T05:06:43;22.10;34.10
75648;DHT22;66269;51.466;7.260;2023-03-12T05:09:09;22.20;33.90
75648;DHT22;66269;51.466;7.260;2023-03-12T05:11:34;22.20;34.00
75648;DHT22;66269;51.466;7.260;2023-03-12T05:14:00;22.20;34.10
75648;DHT22;66269;51.466;7.260;2023-03-12T05:16:25;22.20;34.10
75648;DHT22;66269;51.466;7.260;2023-03-12T05:18:52;22.20;34.10
75648;DHT22;66269;51.466;7.260;2023-03-12T05:21:19;22.10;34.00
75648;DHT22;66269;51.466;7.260;2023-03-12T05:23:45;22.10;33.90
75648;DHT22;66269;51.466;7.260;2023-03-12T05:26:16;22.10;34.10
75648;DHT22;66269;51.466;7.260;2023-03-12T05:28:42;22.10;34.20
75648;DHT22;66269;51.466;7.260;2023-03-12T05:31:09;22.10;34.10
75648;DHT22;66269;51.466;7.260;2023-03-12T05:33:35;22.20;34.10
75648;DHT22;66269;51.466;7.260;2023-03-12T05:36:01;22.20;33.90
75648;DHT22;66269;51.466;7.260;2023-03-12T05:38:27;22.20;33.80
75648;DHT22;66269;51.466;7.260;2023-03-12T05:40:53;22.20;33.90
75648;DHT22;66269;51.466;7.260;2023-03-12T05:43:20;22.20;34.00
75648;DHT22;66269;51.466;7.260;2023-03-12T05:45:45;22.20;34.20
75648;DHT22;66269;51.466;7.260;2023-03-12T05:48:11;22.20;34.10
75648;DHT22;66269;51.466;7.260;2023-03-12T05:50:36;22.20;33.90
75648;DHT22;66269;51.466;7.260;2023-03-12T05:53:02;22.20;34.10
75648;DHT22;66269;51.466;7.260;2023-03-12T05:55:28;22.20;34.00
75648;DHT22;66269;51.466;7.260;2023-03-12T05:57:53;22.20;34.00
75648;DHT22;66269;51.466;7.260;2023-03-12T06:00:19;22.20;33.90
75648;DHT22;66269;51.466;7.260;2023-03-12T06:02:45;22.20;34.30
75648;DHT22;66269;51.466;7.260;2023-03-12T06:05:11;22.20;33.90
75648;DHT22;66269;51.466;7.260;2023-03-12T06:07:37;22.20;34.20
75648;DHT22;66269;51.466;7.260;2023-03-12T06:10:03;22.20;34.10
75648;DHT22;66269;51.466;7.260;2023-03-12T06:12:28;22.20;34.00
75648;DHT22;66269;51.466;7.260;2023-03-12T06:14:54;22.20;33.90
75648;DHT22;66269;51.466;7.260;2023-03-12T06:17:19;22.30;34.00
75648;DHT22;66269;51.466;7.260;2023-03-12T06:19:45;22.10;34.20
75648;DHT22;66269;51.466;7.260;2023-03-12T06:22:11;22.20;34.00
75648;DHT22;66269;51.466;7.260;2023-03-12T06:24:37;22.10;33.90
75648;DHT22;66269;51.466;7.260;2023-03-12T06:27:03;22.20;33.90
75648;DHT22;66269;51.466;7.260;2023-03-12T06:29:28;22.20;33.90
75648;DHT22;66269;51.466;7.260;2023-03-12T06:31:54;22.20;33.90
75648;DHT22;66269;51.466;7.260;2023-03-12T06:34:20;22.30;33.90
75648;DHT22;66269;51.466;7.260;2023-03-12T06:36:45;22.20;33.90
75648;DHT22;66269;51.466;7.260;2023-03-12T06:39:11;22.30;33.90
75648;DHT22;66269;51.466;7.260;2023-03-12T06:41:37;22.20;33.90
75648;DHT22;66269;51.466;7.260;2023-03-12T06:44:03;22.30;33.70
75648;DHT22;66269;51.466;7.260;2023-03-12T06:46:30;22.30;34.00
75648;DHT22;66269;51.466;7.260;2023-03-12T06:48:56;22.20;34.00
75648;DHT22;66269;51.466;7.260;2023-03-12T06:51:22;22.20;33.80
75648;DHT22;66269;51.466;7.260;2023-03-12T06:53:47;22.20;34.10
75648;DHT22;66269;51.466;7.260;2023-03-12T06:56:13;22.30;33.90
75648;DHT22;66269;51.466;7.260;2023-03-12T06:58:39;22.20;33.80
75648;DHT22;66269;51.466;7.260;2023-03-12T07:01:05;22.20;33.90
75648;DHT22;66269;51.466;7.260;2023-03-12T07:03:31;22.30;33.90
75648;DHT22;66269;51.466;7.260;2023-03-12T07:05:57;22.20;34.00
75648;DHT22;66269;51.466;7.260;2023-03-12T07:08:23;22.20;34.00
75648;DHT22;66269;51.466;7.260;2023-03-12T07:10:49;22.20;33.80
75648;DHT22;66269;51.466;7.260;2023-03-12T07:13:14;22.20;33.90
75648;DHT22;66269;51.466;7.260;2023-03-12T07:15:40;22.20;34.10
75648;DHT22;66269;51.466;7.260;2023-03-12T07:18:08;22.20;33.70
75648;DHT22;66269;51.466;7.260;2023-03-12T07:20:36;22.30;33.90
75648;DHT22;66269;51.466;7.260;2023-03-12T07:23:02;22.20;34.40
75648;DHT22;66269;51.466;7.260;2023-03-12T07:25:28;22.10;34.00
75648;DHT22;66269;51.466;7.260;2023-03-12T07:27:54;22.20;34.10
75648;DHT22;66269;51.466;7.260;2023-03-12T07:30:19;22.20;34.00
75648;DHT22;66269;51.466;7.260;2023-03-12T07:32:45;22.20;34.20
75648;DHT22;66269;51.466;7.260;2023-03-12T07:35:11;22.20;34.10
75648;DHT22;66269;51.466;7.260;2023-03-12T07:37:36;22.20;34.20
75648;DHT22;66269;51.466;7.260;2023-03-12T07:40:02;22.20;33.70
75648;DHT22;66269;51.466;7.260;2023-03-12T07:42:31;22.20;34.10
75648;DHT22;66269;51.466;7.260;2023-03-12T07:44:57;22.10;34.10
75648;DHT22;66269;51.466;7.260;2023-03-12T07:47:22;22.20;34.00
75648;DHT22;66269;51.466;7.260;2023-03-12T07:49:48;22.10;34.00
75648;DHT22;66269;51.466;7.260;2023-03-12T07:52:14;22.10;33.90
75648;DHT22;66269;51.466;7.260;2023-03-12T07:54:39;22.30;34.00
75648;DHT22;66269;51.466;7.260;2023-03-12T07:57:05;22.20;34.10
75648;DHT22;66269;51.466;7.260;2023-03-12T07:59:31;22.20;33.90
75648;DHT22;66269;51.466;7.260;2023-03-12T08:01:56;22.20;33.90
75648;DHT22;66269;51.466;7.260;2023-03-12T08:04:22;22.30;33.90
75648;DHT22;66269;51.466;7.260;2023-03-12T08:06:48;22.10;34.20
75648;DHT22;66269;51.466;7.260;2023-03-12T08:09:13;22.20;33.90
75648;DHT22;66269;51.466;7.260;2023-03-12T08:11:39;22.20;33.90
75648;DHT22;66269;51.466;7.260;2023-03-12T08:14:04;22.20;34.00
75648;DHT22;66269;51.466;7.260;2023-03-12T08:16:30;22.10;34.10
75648;DHT22;66269;51.466;7.260;2023-03-12T08:18:56;22.20;34.10
75648;DHT22;66269;51.466;7.260;2023-03-12T08:21:22;22.20;34.00
75648;DHT22;66269;51.466;7.260;2023-03-12T08:23:48;22.20;34.00
75648;DHT22;66269;51.466;7.260;2023-03-12T08:26:13;22.20;33.90
75648;DHT22;66269;51.466;7.260;2023-03-12T08:28:39;22.20;33.90
75648;DHT22;66269;51.466;7.260;2023-03-12T08:31:05;22.20;34.10
75648;DHT22;66269;51.466;7.260;2023-03-12T08:33:31;22.20;33.80
75648;DHT22;66269;51.466;7.260;2023-03-12T08:35:56;22.20;34.10
75648;DHT22;66269;51.466;7.260;2023-03-12T08:38:22;22.20;34.10
75648;DHT22;66269;51.466;7.260;2023-03-12T08:40:57;22.20;34.10
75648;DHT22;66269;51.466;7.260;2023-03-12T08:43:24;22.20;34.10
75648;DHT22;66269;51.466;7.260;2023-03-12T08:45:57;22.20;34.30
75648;DHT22;66269;51.466;7.260;2023-03-12T08:48:24;22.20;34.20
75648;DHT22;66269;51.466;7.260;2023-03-12T08:50:49;22.20;34.20
75648;DHT22;66269;51.466;7.260;2023-03-12T08:53:15;22.20;34.30
75648;DHT22;66269;51.466;7.260;2023-03-12T08:55:42;22.30;34.20
75648;DHT22;66269;51.466;7.260;2023-03-12T08:58:07;22.20;34.10
75648;DHT22;66269;51.466;7.260;2023-03-12T09:00:33;22.20;34.20
75648;DHT22;66269;51.466;7.260;2023-03-12T09:02:58;22.20;34.10
75648;DHT22;66269;51.466;7.260;2023-03-12T09:05:25;22.20;34.20
75648;DHT22;66269;51.466;7.260;2023-03-12T09:07:54;22.20;34.20
75648;DHT22;66269;51.466;7.260;2023-03-12T09:10:20;22.20;34.10
75648;DHT22;66269;51.466;7.260;2023-03-12T09:12:46;22.20;34.20
75648;DHT22;66269;51.466;7.260;2023-03-12T09:15:11;22.20;34.30
75648;DHT22;66269;51.466;7.260;2023-03-12T09:17:37;22.20;34.20
75648;DHT22;66269;51.466;7.260;2023-03-12T09:20:04;22.20;34.20
75648;DHT22;66269;51.466;7.260;2023-03-12T09:22:33;22.30;34.10
75648;DHT22;66269;51.466;7.260;2023-03-12T09:25:02;22.30;34.20
75648;DHT22;66269;51.466;7.260;2023-03-12T09:27:27;22.20;34.30
75648;DHT22;66269;51.466;7.260;2023-03-12T09:29:53;22.30;34.30
75648;DHT22;66269;51.466;7.260;2023-03-12T09:32:19;22.30;34.30
75648;DHT22;66269;51.466;7.260;2023-03-12T09:34:45;22.30;34.30
75648;DHT22;66269;51.466;7.260;2023-03-12T09:37:10;22.20;34.30
75648;DHT22;66269;51.466;7.260;2023-03-12T09:39:36;22.30;34.30
75648;DHT22;66269;51.466;7.260;2023-03-12T09:42:03;22.30;34.40
75648;DHT22;66269;51.466;7.260;2023-03-12T09:44:43;22.30;34.40
75648;DHT22;66269;51.466;7.260;2023-03-12T09:47:25;22.30;34.50
75648;DHT22;66269;51.466;7.260;2023-03-12T09:49:56;22.20;34.60
75648;DHT22;66269;51.466;7.260;2023-03-12T09:52:45;22.30;34.50
75648;DHT22;66269;51.466;7.260;2023-03-12T09:55:15;22.20;34.40
75648;DHT22;66269;51.466;7.260;2023-03-12T09:57:42;22.30;34.60
75648;DHT22;66269;51.466;7.260;2023-03-12T10:00:16;22.20;34.40
75648;DHT22;66269;51.466;7.260;2023-03-12T10:05:14;22.20;34.60
75648;DHT22;66269;51.466;7.260;2023-03-12T10:08:34;22.20;34.50
75648;DHT22;66269;51.466;7.260;2023-03-12T10:17:27;22.20;34.60
75648;DHT22;66269;51.466;7.260;2023-03-12T10:19:51;22.20;34.60
75648;DHT22;66269;51.466;7.260;2023-03-12T10:25:20;22.20;34.50
75648;DHT22;66269;51.466;7.260;2023-03-12T10:27:47;22.20;34.40
75648;DHT22;66269;51.466;7.260;2023-03-12T10:30:21;22.20;34.60
75648;DHT22;66269;51.466;7.260;2023-03-12T10:32:52;22.20;34.60
75648;DHT22;66269;51.466;7.260;2023-03-12T10:35:23;22.20;34.50
75648;DHT22;66269;51.466;7.260;2023-03-12T10:37:53;22.30;34.60
75648;DHT22;66269;51.466;7.260;2023-03-12T10:40:26;22.30;34.70
75648;DHT22;66269;51.466;7.260;2023-03-12T10:42:52;22.30;34.80
75648;DHT22;66269;51.466;7.260;2023-03-12T10:48:21;22.20;34.60
75648;DHT22;66269;51.466;7.260;2023-03-12T10:51:04;22.30;34.80
75648;DHT22;66269;51.466;7.260;2023-03-12T10:53:40;22.30;34.70
75648;DHT22;66269;51.466;7.260;2023-03-12T10:56:11;22.30;34.80
75648;DHT22;66269;51.466;7.260;2023-03-12T10:58:45;22.30;35.10
75648;DHT22;66269;51.466;7.260;2023-03-12T11:01:22;22.30;34.80
75648;DHT22;66269;51.466;7.260;2023-03-12T11:03:48;22.30;34.80
75648;DHT22;66269;51.466;7.260;2023-03-12T11:06:27;22.40;34.90
75648;DHT22;66269;51.466;7.260;2023-03-12T11:11:34;22.30;35.00
75648;DHT22;66269;51.466;7.260;2023-03-12T11:14:21;22.30;34.90
75648;DHT22;66269;51.466;7.260;2023-03-12T11:16:48;22.30;34.90
75648;DHT22;66269;51.466;7.260;2023-03-12T11:19:26;22.30;34.90
75648;DHT22;66269;51.466;7.260;2023-03-12T11:22:00;22.30;34.90
75648;DHT22;66269;51.466;7.260;2023-03-12T11:24:27;22.20;35.00
75648;DHT22;66269;51.466;7.260;2023-03-12T11:29:34;22.30;35.00
75648;DHT22;66269;51.466;7.260;2023-03-12T11:34:34;22.30;35.00
75648;DHT22;66269;51.466;7.260;2023-03-12T11:39:54;22.30;35.20
75648;DHT22;66269;51.466;7.260;2023-03-12T11:42:28;22.30;35.20
75648;DHT22;66269;51.466;7.260;2023-03-12T11:45:22;22.30;35.30
75648;DHT22;66269;51.466;7.260;2023-03-12T11:53:45;22.40;35.10
75648;DHT22;66269;51.466;7.260;2023-03-12T11:56:38;22.40;35.20
75648;DHT22;66269;51.466;7.260;2023-03-12T12:02:19;22.30;35.30
75648;DHT22;66269;51.466;7.260;2023-03-12T12:08:02;22.30;35.50
75648;DHT22;66269;51.466;7.260;2023-03-12T12:13:07;22.30;35.30
75648;DHT22;66269;51.466;7.260;2023-03-12T12:15:49;22.40;35.40
75648;DHT22;66269;51.466;7.260;2023-03-12T12:18:58;22.40;35.10
75648;DHT22;66269;51.466;7.260;2023-03-12T12:32:00;22.50;35.50
75648;DHT22;66269;51.466;7.260;2023-03-12T12:34:38;22.30;35.50
75648;DHT22;66269;51.466;7.260;2023-03-12T12:37:33;22.40;35.50
75648;DHT22;66269;51.466;7.260;2023-03-12T12:40:24;22.40;35.70
75648;DHT22;66269;51.466;7.260;2023-03-12T12:43:21;22.40;35.70
75648;DHT22;66269;51.466;7.260;2023-03-12T12:45:49;22.40;35.60
75648;DHT22;66269;51.466;7.260;2023-03-12T12:48:17;22.40;35.70
75648;DHT22;66269;51.466;7.260;2023-03-12T12:50:45;22.40;35.60
75648;DHT22;66269;51.466;7.260;2023-03-12T12:56:10;22.40;35.70
75648;DHT22;66269;51.466;7.260;2023-03-12T12:58:55;22.40;36.00
75648;DHT22;66269;51.466;7.260;2023-03-12T13:01:25;22.30;36.10
75648;DHT22;66269;51.466;7.260;2023-03-12T13:03:56;22.40;35.70
75648;DHT22;66269;51.466;7.260;2023-03-12T13:06:27;22.30;35.70
75648;DHT22;66269;51.466;7.260;2023-03-12T13:08:59;22.40;36.10
75648;DHT22;66269;51.466;7.260;2023-03-12T13:11:38;22.30;36.10
75648;DHT22;66269;51.466;7.260;2023-03-12T13:16:36;22.30;36.00
75648;DHT22;66269;51.466;7.260;2023-03-12T13:25:27;22.30;36.20
75648;DHT22;66269;51.466;7.260;2023-03-12T13:27:35;22.40;36.10
75648;DHT22;66269;51.466;7.260;2023-03-12T13:45:33;22.50;35.90
75648;DHT22;66269;51.466;7.260;2023-03-12T13:48:04;22.50;36.10
75648;DHT22;66269;51.466;7.260;2023-03-12T13:50:47;22.50;36.00
75648;DHT22;66269;51.466;7.260;2023-03-12T13:53:32;22.50;36.20
75648;DHT22;66269;51.466;7.260;2023-03-12T13:56:11;22.50;36.20
75648;DHT22;66269;51.466;7.260;2023-03-12T14:01:17;22.50;36.20
75648;DHT22;66269;51.466;7.260;2023-03-12T14:03:47;22.50;36.10
75648;DHT22;66269;51.466;7.260;2023-03-12T14:06:27;22.60;36.40
75648;DHT22;66269;51.466;7.260;2023-03-12T14:11:52;22.50;36.10
75648;DHT22;66269;51.466;7.260;2023-03-12T14:17:35;22.50;36.10
75648;DHT22;66269;51.466;7.260;2023-03-12T14:20:03;22.50;36.20
75648;DHT22;66269;51.466;7.260;2023-03-12T14:22:35;22.50;36.30
75648;DHT22;66269;51.466;7.260;2023-03-12T14:25:10;22.50;36.30
75648;DHT22;66269;51.466;7.260;2023-03-12T14:27:38;22.50;36.40
75648;DHT22;66269;51.466;7.260;2023-03-12T14:30:11;22.50;36.50
75648;DHT22;66269;51.466;7.260;2023-03-12T14:32:41;22.60;36.40
75648;DHT22;66269;51.466;7.260;2023-03-12T14:35:20;22.60;36.40
75648;DHT22;66269;51.466;7.260;2023-03-12T14:38:06;22.50;36.60
75648;DHT22;66269;51.466;7.260;2023-03-12T14:40:43;22.50;36.30
75648;DHT22;66269;51.466;7.260;2023-03-12T14:45:44;22.50;36.50
75648;DHT22;66269;51.466;7.260;2023-03-12T14:48:10;22.40;36.40
75648;DHT22;66269;51.466;7.260;2023-03-12T14:50:39;22.50;36.50
75648;DHT22;66269;51.466;7.260;2023-03-12T14:53:25;22.60;36.40
75648;DHT22;66269;51.466;7.260;2023-03-12T14:58:42;22.60;36.60
75648;DHT22;66269;51.466;7.260;2023-03-12T15:01:12;22.60;36.70
75648;DHT22;66269;51.466;7.260;2023-03-12T15:03:50;22.50;36.50
75648;DHT22;66269;51.466;7.260;2023-03-12T15:06:39;22.50;36.70
75648;DHT22;66269;51.466;7.260;2023-03-12T15:09:32;22.50;36.60
75648;DHT22;66269;51.466;7.260;2023-03-12T15:12:00;22.50;36.50
75648;DHT22;66269;51.466;7.260;2023-03-12T15:14:28;22.50;36.60
75648;DHT22;66269;51.466;7.260;2023-03-12T15:16:56;22.40;36.80
75648;DHT22;66269;51.466;7.260;2023-03-12T15:19:26;22.50;36.80
75648;DHT22;66269;51.466;7.260;2023-03-12T15:21:55;22.60;37.00
75648;DHT22;66269;51.466;7.260;2023-03-12T15:24:21;22.50;36.70
75648;DHT22;66269;51.466;7.260;2023-03-12T15:26:47;22.50;36.80
75648;DHT22;66269;51.466;7.260;2023-03-12T15:29:20;22.50;36.70
75648;DHT22;66269;51.466;7.260;2023-03-12T15:31:55;22.50;36.90
75648;DHT22;66269;51.466;7.260;2023-03-12T15:34:34;22.50;36.60
75648;DHT22;66269;51.466;7.260;2023-03-12T15:37:02;22.40;36.70
75648;DHT22;66269;51.466;7.260;2023-03-12T15:39:34;22.50;36.70
75648;DHT22;66269;51.466;7.260;2023-03-12T15:42:08;22.50;36.90
75648;DHT22;66269;51.466;7.260;2023-03-12T15:44:43;22.50;37.00
75648;DHT22;66269;51.466;7.260;2023-03-12T15:47:13;22.40;36.90
75648;DHT22;66269;51.466;7.260;2023-03-12T15:49:40;22.40;36.90
75648;DHT22;66269;51.466;7.260;2023-03-12T15:52:29;22.40;36.70
75648;DHT22;66269;51.466;7.260;2023-03-12T15:57:30;22.40;37.10
75648;DHT22;66269;51.466;7.260;2023-03-12T16:03:01;22.50;37.10
75648;DHT22;66269;51.466;7.260;2023-03-12T16:05:34;22.40;37.00
75648;DHT22;66269;51.466;7.260;2023-03-12T16:08:05;22.40;37.20
75648;DHT22;66269;51.466;7.260;2023-03-12T16:10:35;22.50;37.00
75648;DHT22;66269;51.466;7.260;2023-03-12T16:13:02;22.40;37.00
75648;DHT22;66269;51.466;7.260;2023-03-12T16:15:33;22.50;37.10
75648;DHT22;66269;51.466;7.260;2023-03-12T16:18:00;22.40;37.20
75648;DHT22;66269;51.466;7.260;2023-03-12T16:20:26;22.40;37.10
75648;DHT22;66269;51.466;7.260;2023-03-12T16:22:51;22.40;37.10
75648;DHT22;66269;51.466;7.260;2023-03-12T16:25:17;22.40;37.20
75648;DHT22;66269;51.466;7.260;2023-03-12T16:27:49;22.40;37.30
75648;DHT22;66269;51.466;7.260;2023-03-12T16:30:19;22.40;37.30
75648;DHT22;66269;51.466;7.260;2023-03-12T16:32:46;22.40;37.30
75648;DHT22;66269;51.466;7.260;2023-03-12T16:35:14;22.40;37.30
75648;DHT22;66269;51.466;7.260;2023-03-12T16:37:40;22.50;37.50
75648;DHT22;66269;51.466;7.260;2023-03-12T16:40:06;22.50;37.40
75648;DHT22;66269;51.466;7.260;2023-03-12T16:42:32;22.50;37.50
75648;DHT22;66269;51.466;7.260;2023-03-12T16:45:01;22.50;37.50
75648;DHT22;66269;51.466;7.260;2023-03-12T16:47:27;22.50;37.30
75648;DHT22;66269;51.466;7.260;2023-03-12T16:49:52;22.40;37.40
75648;DHT22;66269;51.466;7.260;2023-03-12T16:52:20;22.50;37.30
75648;DHT22;66269;51.466;7.260;2023-03-12T16:54:50;22.50;37.50
75648;DHT22;66269;51.466;7.260;2023-03-12T16:57:26;22.50;37.40
75648;DHT22;66269;51.466;7.260;2023-03-12T16:59:54;22.40;37.40
75648;DHT22;66269;51.466;7.260;2023-03-12T17:02:19;22.40;37.50
75648;DHT22;66269;51.466;7.260;2023-03-12T17:04:46;22.40;37.40
75648;DHT22;66269;51.466;7.260;2023-03-12T17:07:13;22.40;37.40
75648;DHT22;66269;51.466;7.260;2023-03-12T17:09:39;22.40;37.40
75648;DHT22;66269;51.466;7.260;2023-03-12T17:12:06;22.40;37.50
75648;DHT22;66269;51.466;7.260;2023-03-12T17:14:35;22.30;37.40
75648;DHT22;66269;51.466;7.260;2023-03-12T17:17:01;22.40;37.50
75648;DHT22;66269;51.466;7.260;2023-03-12T17:19:27;22.40;37.50